createdAt,value
2022-10-23T00:00:04.837Z,1012.00
2022-10-23T00:01:24.718Z,1012.00
2022-10-23T00:02:03.992Z,1011.96
2022-10-23T00:03:03.673Z,1011.94
2022-10-23T00:04:04.653Z,1011.98
2022-10-23T00:05:05.274Z,1011.96
2022-10-23T00:06:05.043Z,1011.97
2022-10-23T00:07:04.216Z,1011.92
2022-10-23T00:08:05.145Z,1011.97
2022-10-23T00:09:04.060Z,1011.92
2022-10-23T00:10:05.228Z,1011.85
2022-10-23T00:11:23.547Z,1011.84
2022-10-23T00:12:04.906Z,1011.80
2022-10-23T00:13:04.216Z,1011.82
2022-10-23T00:14:04.948Z,1011.78
2022-10-23T00:15:05.247Z,1011.76
2022-10-23T00:16:04.547Z,1011.75
2022-10-23T00:17:05.347Z,1011.74
2022-10-23T00:18:05.130Z,1011.72
2022-10-23T00:19:04.223Z,1011.75
2022-10-23T00:20:04.689Z,1011.72
2022-10-23T00:21:23.516Z,1011.76
2022-10-23T00:22:05.319Z,1011.77
2022-10-23T00:23:04.599Z,1011.73
2022-10-23T00:24:03.561Z,1011.77
2022-10-23T00:25:04.225Z,1011.71
2022-10-23T00:26:04.958Z,1011.74
2022-10-23T00:27:05.243Z,1011.71
2022-10-23T00:28:05.014Z,1011.72
2022-10-23T00:29:04.798Z,1011.74
2022-10-23T00:30:03.681Z,1011.73
2022-10-23T00:31:23.395Z,1011.77
2022-10-23T00:32:05.104Z,1011.77
2022-10-23T00:33:04.892Z,1011.76
2022-10-23T00:34:04.413Z,1011.77
2022-10-23T00:35:04.977Z,1011.75
2022-10-23T00:36:04.265Z,1011.75
2022-10-23T00:37:04.237Z,1011.74
2022-10-23T00:38:04.913Z,1011.73
2022-10-23T00:39:03.307Z,1011.72
2022-10-23T00:40:04.975Z,1011.71
2022-10-23T00:41:23.292Z,1011.71
2022-10-23T00:42:04.625Z,1011.74
2022-10-23T00:43:04.235Z,1011.71
2022-10-23T00:44:04.209Z,1011.73
2022-10-23T00:45:04.496Z,1011.70
2022-10-23T00:46:04.275Z,1011.73
2022-10-23T00:47:05.046Z,1011.75
2022-10-23T00:48:04.835Z,1011.75
2022-10-23T00:49:03.311Z,1011.74
2022-10-23T00:50:04.901Z,1011.73
2022-10-23T00:51:23.196Z,1011.72
2022-10-23T00:52:03.575Z,1011.70
2022-10-23T00:53:04.798Z,1011.69
2022-10-23T00:55:04.410Z,1011.69
2022-10-23T00:56:04.145Z,1011.70
2022-10-23T00:57:04.917Z,1011.71
2022-10-23T00:58:04.717Z,1011.72
2022-10-23T00:59:04.506Z,1011.71
2022-10-23T01:00:03.771Z,1011.69
2022-10-23T01:01:24.736Z,1011.67
2022-10-23T01:02:03.453Z,1011.65
2022-10-23T01:03:03.816Z,1011.61
2022-10-23T01:04:04.332Z,1011.58
2022-10-23T01:05:04.621Z,1011.58
2022-10-23T01:06:04.290Z,1011.54
2022-10-23T01:07:03.206Z,1011.52
2022-10-23T01:08:02.933Z,1011.53
2022-10-23T01:09:05.529Z,1011.56
2022-10-23T01:10:02.930Z,1011.63
2022-10-23T01:11:23.760Z,1011.56
2022-10-23T01:12:04.422Z,1011.62
2022-10-23T01:13:04.671Z,1011.61
2022-10-23T01:15:03.452Z,1011.64
2022-10-23T01:16:02.993Z,1011.61
2022-10-23T01:17:03.242Z,1011.63
2022-10-23T01:18:03.463Z,1011.55
2022-10-23T01:19:03.246Z,1011.54
2022-10-23T01:20:02.986Z,1011.53
2022-10-23T01:21:24.712Z,1011.48
2022-10-23T01:22:03.003Z,1011.45
2022-10-23T01:23:02.752Z,1011.43
2022-10-23T01:24:03.373Z,1011.47
2022-10-23T01:25:02.791Z,1011.49
2022-10-23T01:26:03.043Z,1011.46
2022-10-23T01:27:02.777Z,1011.45
2022-10-23T01:28:03.033Z,1011.42
2022-10-23T01:29:02.816Z,1011.44
2022-10-23T01:30:04.472Z,1011.39
2022-10-23T01:31:23.668Z,1011.37
2022-10-23T01:32:03.418Z,1011.33
2022-10-23T01:33:02.877Z,1011.29
2022-10-23T01:34:02.968Z,1011.36
2022-10-23T01:35:02.707Z,1011.35
2022-10-23T01:36:02.989Z,1011.36
2022-10-23T01:37:02.717Z,1011.31
2022-10-23T01:38:02.980Z,1011.33
2022-10-23T01:40:02.980Z,1011.33
2022-10-23T01:41:23.300Z,1011.31
2022-10-23T01:42:02.520Z,1011.31
2022-10-23T01:43:02.769Z,1011.29
2022-10-23T01:44:02.551Z,1011.27
2022-10-23T01:45:03.097Z,1011.27
2022-10-23T01:46:02.519Z,1011.23
2022-10-23T01:47:02.781Z,1011.22
2022-10-23T01:48:02.519Z,1011.28
2022-10-23T01:49:03.727Z,1011.29
2022-10-23T01:50:02.507Z,1011.29
2022-10-23T01:51:24.282Z,1011.29
2022-10-23T01:52:03.855Z,1011.31
2022-10-23T01:53:03.302Z,1011.26
2022-10-23T01:54:04.021Z,1011.26
2022-10-23T01:55:04.304Z,1011.27
2022-10-23T01:56:04.138Z,1011.27
2022-10-23T01:57:03.929Z,1011.24
2022-10-23T01:58:03.434Z,1011.21
2022-10-23T01:59:03.303Z,1011.20
2022-10-23T02:00:03.843Z,1011.20
2022-10-23T02:01:22.818Z,1011.19
2022-10-23T02:02:04.116Z,1011.19
2022-10-23T02:03:04.225Z,1011.22
2022-10-23T02:04:04.014Z,1011.19
2022-10-23T02:05:03.321Z,1011.18
2022-10-23T02:06:02.704Z,1011.20
2022-10-23T02:07:03.933Z,1011.17
2022-10-23T02:08:03.452Z,1011.19
2022-10-23T02:09:03.642Z,1011.18
2022-10-23T02:10:03.450Z,1011.14
2022-10-23T02:11:23.772Z,1011.11
2022-10-23T02:12:04.012Z,1011.08
2022-10-23T02:13:03.852Z,1011.09
2022-10-23T02:14:04.128Z,1011.10
2022-10-23T02:15:03.493Z,1011.08
2022-10-23T02:16:03.821Z,1011.05
2022-10-23T02:17:03.292Z,1011.03
2022-10-23T02:18:03.164Z,1011.04
2022-10-23T02:19:03.774Z,1011.04
2022-10-23T02:20:04.073Z,1011.06
2022-10-23T02:21:22.486Z,1011.04
2022-10-23T02:22:03.109Z,1011.05
2022-10-23T02:23:03.305Z,1011.02
2022-10-23T02:24:03.761Z,1011.04
2022-10-23T02:25:03.671Z,1011.01
2022-10-23T02:26:03.468Z,1011.04
2022-10-23T02:27:03.799Z,1011.02
2022-10-23T02:28:02.807Z,1010.96
2022-10-23T02:29:02.828Z,1010.95
2022-10-23T02:30:03.767Z,1010.97
2022-10-23T02:31:22.148Z,1010.92
2022-10-23T02:32:03.017Z,1010.94
2022-10-23T02:33:03.857Z,1010.91
2022-10-23T02:34:02.813Z,1010.86
2022-10-23T02:35:03.514Z,1010.86
2022-10-23T02:36:03.868Z,1010.83
2022-10-23T02:37:03.188Z,1010.82
2022-10-23T02:38:02.718Z,1010.83
2022-10-23T02:39:03.363Z,1010.80
2022-10-23T02:40:02.820Z,1010.82
2022-10-23T02:41:22.112Z,1010.77
2022-10-23T02:42:02.369Z,1010.74
2022-10-23T02:43:03.123Z,1010.74
2022-10-23T02:44:03.396Z,1010.67
2022-10-23T02:45:02.823Z,1010.67
2022-10-23T02:46:02.826Z,1010.62
2022-10-23T02:47:03.816Z,1010.61
2022-10-23T02:48:03.586Z,1010.54
2022-10-23T02:49:03.365Z,1010.52
2022-10-23T02:50:02.876Z,1010.48
2022-10-23T02:51:21.982Z,1010.49
2022-10-23T02:52:03.749Z,1010.42
2022-10-23T02:53:03.500Z,1010.36
2022-10-23T02:54:02.815Z,1010.35
2022-10-23T02:55:03.630Z,1010.30
2022-10-23T02:56:03.478Z,1010.30
2022-10-23T02:57:02.825Z,1010.30
2022-10-23T02:58:02.267Z,1010.27
2022-10-23T02:59:02.950Z,1010.28
2022-10-23T03:00:03.249Z,1010.28
2022-10-23T03:01:22.227Z,1010.25
2022-10-23T03:02:03.368Z,1010.27
2022-10-23T03:03:02.844Z,1010.25
2022-10-23T03:04:03.465Z,1010.21
2022-10-23T03:05:03.208Z,1010.20
2022-10-23T03:06:02.997Z,1010.21
2022-10-23T03:07:03.278Z,1010.25
2022-10-23T03:08:02.339Z,1010.20
2022-10-23T03:09:02.343Z,1010.19
2022-10-23T03:10:02.763Z,1010.19
2022-10-23T03:11:22.095Z,1010.17
2022-10-23T03:12:03.370Z,1010.18
2022-10-23T03:13:03.192Z,1010.21
2022-10-23T03:14:02.966Z,1010.18
2022-10-23T03:15:02.333Z,1010.18
2022-10-23T03:16:03.040Z,1010.14
2022-10-23T03:17:03.311Z,1010.12
2022-10-23T03:18:03.160Z,1010.14
2022-10-23T03:19:03.499Z,1010.14
2022-10-23T03:20:03.215Z,1010.11
2022-10-23T03:21:22.434Z,1010.06
2022-10-23T03:22:03.273Z,1010.06
2022-10-23T03:23:02.283Z,1010.02
2022-10-23T03:24:03.379Z,1010.05
2022-10-23T03:25:03.149Z,1009.99
2022-10-23T03:26:03.511Z,1010.00
2022-10-23T03:27:02.348Z,1009.97
2022-10-23T03:28:03.113Z,1009.97
2022-10-23T03:29:03.389Z,1009.96
2022-10-23T03:30:03.183Z,1009.96
2022-10-23T03:31:21.500Z,1009.99
2022-10-23T03:32:03.215Z,1009.95
2022-10-23T03:33:02.347Z,1009.96
2022-10-23T03:34:04.127Z,1009.95
2022-10-23T03:35:02.323Z,1009.93
2022-10-23T03:36:02.888Z,1009.96
2022-10-23T03:37:03.175Z,1009.96
2022-10-23T03:38:02.990Z,1009.97
2022-10-23T03:39:02.352Z,1009.95
2022-10-23T03:40:02.610Z,1009.95
2022-10-23T03:41:22.889Z,1009.93
2022-10-23T03:42:02.290Z,1009.93
2022-10-23T03:43:03.088Z,1009.88
2022-10-23T03:45:02.351Z,1009.92
2022-10-23T03:46:02.999Z,1009.84
2022-10-23T03:47:02.013Z,1009.88
2022-10-23T03:48:02.583Z,1009.86
2022-10-23T03:49:01.538Z,1009.83
2022-10-23T03:50:02.204Z,1009.81
2022-10-23T03:51:21.512Z,1009.81
2022-10-23T03:52:02.738Z,1009.81
2022-10-23T03:53:03.052Z,1009.78
2022-10-23T03:54:02.369Z,1009.76
2022-10-23T03:55:02.144Z,1009.72
2022-10-23T03:56:02.951Z,1009.67
2022-10-23T03:57:01.876Z,1009.65
2022-10-23T03:58:02.264Z,1009.68
2022-10-23T03:59:02.888Z,1009.68
2022-10-23T04:00:02.675Z,1009.67
2022-10-23T04:01:21.537Z,1009.57
2022-10-23T04:02:01.595Z,1009.58
2022-10-23T04:03:02.485Z,1009.57
2022-10-23T04:04:02.780Z,1009.54
2022-10-23T04:05:02.623Z,1009.55
2022-10-23T04:06:02.915Z,1009.47
2022-10-23T04:07:01.935Z,1009.46
2022-10-23T04:08:01.920Z,1009.45
2022-10-23T04:09:02.902Z,1009.44
2022-10-23T04:10:02.647Z,1009.44
2022-10-23T04:11:21.452Z,1009.42
2022-10-23T04:12:01.297Z,1009.44
2022-10-23T04:13:01.976Z,1009.42
2022-10-23T04:14:01.878Z,1009.47
2022-10-23T04:15:01.189Z,1009.46
2022-10-23T04:16:02.906Z,1009.49
2022-10-23T04:17:02.713Z,1009.49
2022-10-23T04:18:02.489Z,1009.47
2022-10-23T04:19:01.889Z,1009.49
2022-10-23T04:20:01.893Z,1009.43
2022-10-23T04:21:21.488Z,1009.44
2022-10-23T04:22:02.119Z,1009.48
2022-10-23T04:23:02.372Z,1009.51
2022-10-23T04:24:02.713Z,1009.46
2022-10-23T04:25:02.490Z,1009.50
2022-10-23T04:26:02.266Z,1009.52
2022-10-23T04:27:02.617Z,1009.54
2022-10-23T04:28:02.387Z,1009.48
2022-10-23T04:29:02.179Z,1009.52
2022-10-23T04:30:02.444Z,1009.50
2022-10-23T04:31:21.297Z,1009.49
2022-10-23T04:32:01.981Z,1009.47
2022-10-23T04:33:02.290Z,1009.45
2022-10-23T04:34:01.848Z,1009.52
2022-10-23T04:35:01.887Z,1009.48
2022-10-23T04:36:02.712Z,1009.50
2022-10-23T04:37:01.900Z,1009.50
2022-10-23T04:38:00.868Z,1009.51
2022-10-23T04:39:02.053Z,1009.50
2022-10-23T04:40:02.380Z,1009.51
2022-10-23T04:41:21.204Z,1009.47
2022-10-23T04:42:01.391Z,1009.50
2022-10-23T04:43:01.397Z,1009.48
2022-10-23T04:44:02.568Z,1009.41
2022-10-23T04:45:01.830Z,1009.39
2022-10-23T04:46:02.137Z,1009.40
2022-10-23T04:47:01.664Z,1009.41
2022-10-23T04:48:02.246Z,1009.38
2022-10-23T04:49:01.114Z,1009.39
2022-10-23T04:50:02.344Z,1009.39
2022-10-23T04:51:20.668Z,1009.41
2022-10-23T04:52:01.069Z,1009.43
2022-10-23T04:53:02.374Z,1009.42
2022-10-23T04:54:02.137Z,1009.41
2022-10-23T04:55:01.429Z,1009.35
2022-10-23T04:56:01.808Z,1009.39
2022-10-23T04:57:02.096Z,1009.38
2022-10-23T04:58:02.427Z,1009.37
2022-10-23T04:59:00.853Z,1009.37
2022-10-23T05:00:01.987Z,1009.32
2022-10-23T05:01:20.923Z,1009.34
2022-10-23T05:02:01.246Z,1009.36
2022-10-23T05:03:02.369Z,1009.34
2022-10-23T05:04:00.729Z,1009.36
2022-10-23T05:05:00.499Z,1009.34
2022-10-23T05:06:02.219Z,1009.31
2022-10-23T05:07:01.412Z,1009.31
2022-10-23T05:08:02.359Z,1009.32
2022-10-23T05:09:02.135Z,1009.29
2022-10-23T05:10:01.922Z,1009.27
2022-10-23T05:11:20.751Z,1009.23
2022-10-23T05:12:00.839Z,1009.24
2022-10-23T05:13:02.155Z,1009.19
2022-10-23T05:14:01.998Z,1009.21
2022-10-23T05:15:01.800Z,1009.24
2022-10-23T05:16:00.650Z,1009.21
2022-10-23T05:17:01.096Z,1009.26
2022-10-23T05:18:01.432Z,1009.23
2022-10-23T05:19:02.085Z,1009.19
2022-10-23T05:20:01.861Z,1009.17
2022-10-23T05:21:20.690Z,1009.13
2022-10-23T05:22:01.881Z,1009.18
2022-10-23T05:23:01.733Z,1009.13
2022-10-23T05:24:01.421Z,1009.13
2022-10-23T05:25:01.859Z,1009.23
2022-10-23T05:26:00.843Z,1009.17
2022-10-23T05:27:01.503Z,1009.15
2022-10-23T05:28:01.798Z,1009.13
2022-10-23T05:29:02.100Z,1009.06
2022-10-23T05:30:00.944Z,1009.02
2022-10-23T05:31:20.723Z,1008.99
2022-10-23T05:32:00.530Z,1008.97
2022-10-23T05:33:01.744Z,1009.00
2022-10-23T05:34:01.618Z,1009.01
2022-10-23T05:35:00.482Z,1008.98
2022-10-23T05:36:01.225Z,1009.01
2022-10-23T05:37:01.996Z,1008.93
2022-10-23T05:38:01.776Z,1008.96
2022-10-23T05:39:02.128Z,1008.97
2022-10-23T05:40:01.943Z,1008.91
2022-10-23T05:41:20.239Z,1008.94
2022-10-23T05:42:02.052Z,1008.90
2022-10-23T05:43:01.065Z,1008.94
2022-10-23T05:44:01.629Z,1008.90
2022-10-23T05:45:01.928Z,1008.90
2022-10-23T05:46:01.786Z,1008.91
2022-10-23T05:47:00.946Z,1008.87
2022-10-23T05:48:10.941Z,1008.87
2022-10-23T05:49:02.677Z,1008.86
2022-10-23T05:50:01.959Z,1008.87
2022-10-23T05:51:20.271Z,1008.90
2022-10-23T05:52:00.723Z,1008.90
2022-10-23T05:53:00.366Z,1008.91
2022-10-23T05:54:01.616Z,1008.97
2022-10-23T05:55:01.431Z,1008.84
2022-10-23T05:56:01.717Z,1008.88
2022-10-23T05:57:01.506Z,1008.84
2022-10-23T05:58:01.885Z,1008.78
2022-10-23T05:59:00.972Z,1008.80
2022-10-23T06:00:00.930Z,1008.80
2022-10-23T06:01:20.322Z,1008.81
2022-10-23T06:02:01.084Z,1008.81
2022-10-23T06:03:01.814Z,1008.81
2022-10-23T06:04:00.955Z,1008.79
2022-10-23T06:05:01.413Z,1008.80
2022-10-23T06:06:01.719Z,1008.77
2022-10-23T06:07:01.503Z,1008.81
2022-10-23T06:08:01.771Z,1008.83
2022-10-23T06:09:01.105Z,1008.78
2022-10-23T06:10:00.464Z,1008.75
2022-10-23T06:11:20.235Z,1008.73
2022-10-23T06:12:00.261Z,1008.73
2022-10-23T06:13:01.035Z,1008.72
2022-10-23T06:14:01.433Z,1008.71
2022-10-23T06:15:01.618Z,1008.73
2022-10-23T06:16:01.433Z,1008.73
2022-10-23T06:17:00.456Z,1008.71
2022-10-23T06:18:01.524Z,1008.73
2022-10-23T06:19:01.317Z,1008.67
2022-10-23T06:20:00.825Z,1008.72
2022-10-23T06:21:20.033Z,1008.67
2022-10-23T06:22:00.680Z,1008.66
2022-10-23T06:23:00.464Z,1008.66
2022-10-23T06:24:01.322Z,1008.65
2022-10-23T06:25:01.601Z,1008.66
2022-10-23T06:26:01.497Z,1008.72
2022-10-23T06:27:01.271Z,1008.66
2022-10-23T06:28:01.064Z,1008.74
2022-10-23T06:29:00.478Z,1008.69
2022-10-23T06:30:01.167Z,1008.67
2022-10-23T06:31:19.982Z,1008.65
2022-10-23T06:31:59.117Z,1008.61
2022-10-23T06:33:03.385Z,1008.58
2022-10-23T06:34:01.157Z,1008.56
2022-10-23T06:35:00.461Z,1008.56
2022-10-23T06:36:01.312Z,1008.55
2022-10-23T06:37:01.072Z,1008.49
2022-10-23T06:38:00.853Z,1008.49
2022-10-23T06:39:01.157Z,1008.52
2022-10-23T06:40:01.478Z,1008.51
2022-10-23T06:41:19.813Z,1008.45
2022-10-23T06:42:00.234Z,1008.43
2022-10-23T06:43:00.794Z,1008.42
2022-10-23T06:44:01.083Z,1008.41
2022-10-23T06:45:04.820Z,1008.45
2022-10-23T06:46:02.204Z,1008.40
2022-10-23T06:47:01.002Z,1008.40
2022-10-23T06:48:01.274Z,1008.36
2022-10-23T06:49:01.075Z,1008.35
2022-10-23T06:50:00.922Z,1008.35
2022-10-23T06:51:21.331Z,1008.32
2022-10-23T06:51:59.556Z,1008.30
2022-10-23T06:52:59.782Z,1008.33
2022-10-23T06:53:59.531Z,1008.34
2022-10-23T06:54:59.765Z,1008.29
2022-10-23T06:55:59.506Z,1008.31
2022-10-23T06:56:59.756Z,1008.31
2022-10-23T06:57:59.507Z,1008.31
2022-10-23T06:59:00.042Z,1008.28
2022-10-23T07:00:00.959Z,1008.33
2022-10-23T07:01:21.466Z,1008.33
2022-10-23T07:01:59.555Z,1008.34
2022-10-23T07:02:59.300Z,1008.34
2022-10-23T07:03:59.542Z,1008.36
2022-10-23T07:04:59.292Z,1008.30
2022-10-23T07:05:59.537Z,1008.31
2022-10-23T07:06:59.286Z,1008.33
2022-10-23T07:07:59.518Z,1008.30
2022-10-23T07:08:59.259Z,1008.28
2022-10-23T07:09:59.572Z,1008.28
2022-10-23T07:11:20.789Z,1008.28
2022-10-23T07:11:59.572Z,1008.28
2022-10-23T07:12:59.315Z,1008.33
2022-10-23T07:13:59.572Z,1008.31
2022-10-23T07:14:59.311Z,1008.28
2022-10-23T07:15:59.575Z,1008.23
2022-10-23T07:16:59.313Z,1008.19
2022-10-23T07:17:59.575Z,1008.24
2022-10-23T07:18:59.307Z,1008.21
2022-10-23T07:19:59.702Z,1008.23
2022-10-23T07:21:20.031Z,1008.20
2022-10-23T07:22:00.626Z,1008.20
2022-10-23T07:23:00.879Z,1008.18
2022-10-23T07:24:00.637Z,1008.19
2022-10-23T07:25:00.885Z,1008.14
2022-10-23T07:26:00.656Z,1008.13
2022-10-23T07:26:59.472Z,1008.16
2022-10-23T07:28:00.677Z,1008.14
2022-10-23T07:28:59.523Z,1008.14
2022-10-23T07:30:00.693Z,1008.13
2022-10-23T07:31:19.026Z,1008.13
2022-10-23T07:31:59.318Z,1008.15
2022-10-23T07:32:59.018Z,1008.16
2022-10-23T07:33:59.252Z,1008.06
2022-10-23T07:34:59.007Z,1008.08
2022-10-23T07:36:00.177Z,1008.01
2022-10-23T07:36:59.039Z,1007.99
2022-10-23T07:38:00.023Z,1007.97
2022-10-23T07:38:59.055Z,1007.97
2022-10-23T07:40:00.739Z,1008.00
2022-10-23T07:41:19.027Z,1008.01
2022-10-23T07:41:59.288Z,1008.01
2022-10-23T07:42:59.047Z,1008.00
2022-10-23T07:43:59.332Z,1008.02
2022-10-23T07:45:00.480Z,1008.00
2022-10-23T07:45:59.292Z,1007.96
2022-10-23T07:47:00.510Z,1007.96
2022-10-23T07:47:58.801Z,1007.97
2022-10-23T07:49:00.522Z,1007.93
2022-10-23T07:49:58.817Z,1007.94
2022-10-23T07:51:20.528Z,1007.98
2022-10-23T07:51:58.989Z,1008.00
2022-10-23T07:52:59.133Z,1007.99
2022-10-23T07:53:58.914Z,1008.04
2022-10-23T07:55:00.593Z,1008.07
2022-10-23T07:55:58.941Z,1008.05
2022-10-23T07:56:59.222Z,1008.06
2022-10-23T07:57:58.921Z,1008.06
2022-10-23T07:58:59.199Z,1008.02
2022-10-23T08:00:00.382Z,1008.04
2022-10-23T08:01:19.247Z,1008.08
2022-10-23T08:01:59.047Z,1008.09
2022-10-23T08:02:59.255Z,1008.03
2022-10-23T08:03:58.923Z,1008.08
2022-10-23T08:04:58.666Z,1008.07
2022-10-23T08:05:58.904Z,1008.03
2022-10-23T08:06:58.635Z,1008.08
2022-10-23T08:07:58.975Z,1008.08
2022-10-23T08:09:03.723Z,1008.07
2022-10-23T08:09:59.973Z,1008.00
2022-10-23T08:11:20.175Z,1008.04
2022-10-23T08:12:00.441Z,1008.03
2022-10-23T08:12:58.770Z,1008.00
2022-10-23T08:13:58.993Z,1008.00
2022-10-23T08:15:00.217Z,1008.00
2022-10-23T08:15:59.017Z,1008.03
2022-10-23T08:16:58.790Z,1008.03
2022-10-23T08:17:58.495Z,1008.03
2022-10-23T08:18:59.695Z,1008.01
2022-10-23T08:19:58.489Z,1008.00
2022-10-23T08:21:19.558Z,1007.93
2022-10-23T08:21:58.505Z,1007.91
2022-10-23T08:22:58.778Z,1007.93
2022-10-23T08:23:58.517Z,1007.92
2022-10-23T08:24:58.782Z,1007.86
2022-10-23T08:25:58.538Z,1007.86
2022-10-23T08:26:59.549Z,1007.84
2022-10-23T08:27:58.512Z,1007.79
2022-10-23T08:28:58.784Z,1007.80
2022-10-23T08:29:58.521Z,1007.78
2022-10-23T08:31:20.230Z,1007.75
2022-10-23T08:31:58.517Z,1007.72
2022-10-23T08:32:59.065Z,1007.71
2022-10-23T08:33:59.971Z,1007.71
2022-10-23T08:34:58.812Z,1007.73
2022-10-23T08:35:58.533Z,1007.78
2022-10-23T08:36:58.768Z,1007.74
2022-10-23T08:37:58.511Z,1007.72
2022-10-23T08:38:59.724Z,1007.70
2022-10-23T08:39:58.544Z,1007.70
2022-10-23T08:41:19.775Z,1007.62
2022-10-23T08:41:58.615Z,1007.63
2022-10-23T08:42:58.307Z,1007.65
2022-10-23T08:43:58.564Z,1007.63
2022-10-23T08:44:58.292Z,1007.66
2022-10-23T08:45:58.544Z,1007.59
2022-10-23T08:46:58.281Z,1007.57
2022-10-23T08:47:58.553Z,1007.55
2022-10-23T08:48:58.287Z,1007.52
2022-10-23T08:49:58.630Z,1007.48
2022-10-23T08:51:19.096Z,1007.52
2022-10-23T08:51:58.590Z,1007.47
2022-10-23T08:52:58.351Z,1007.41
2022-10-23T08:54:00.077Z,1007.49
2022-10-23T08:54:58.412Z,1007.47
2022-10-23T08:55:58.130Z,1007.44
2022-10-23T08:56:58.381Z,1007.48
2022-10-23T08:57:58.133Z,1007.40
2022-10-23T08:58:58.379Z,1007.42
2022-10-23T08:59:58.115Z,1007.44
2022-10-23T09:01:19.530Z,1007.41
2022-10-23T09:01:58.281Z,1007.41
2022-10-23T09:02:58.379Z,1007.36
2022-10-23T09:03:58.135Z,1007.33
2022-10-23T09:04:58.410Z,1007.28
2022-10-23T09:05:58.163Z,1007.27
2022-10-23T09:06:58.439Z,1007.28
2022-10-23T09:07:58.183Z,1007.25
2022-10-23T09:08:58.420Z,1007.28
2022-10-23T09:09:58.177Z,1007.26
2022-10-23T09:11:18.429Z,1007.26
2022-10-23T09:11:58.152Z,1007.29
2022-10-23T09:12:58.394Z,1007.28
2022-10-23T09:13:58.177Z,1007.29
2022-10-23T09:14:57.938Z,1007.29
2022-10-23T09:15:58.172Z,1007.30
2022-10-23T09:16:57.915Z,1007.27
2022-10-23T09:17:58.189Z,1007.30
2022-10-23T09:18:57.930Z,1007.25
2022-10-23T09:19:58.200Z,1007.22
2022-10-23T09:21:17.991Z,1007.17
2022-10-23T09:21:58.176Z,1007.15
2022-10-23T09:22:57.921Z,1007.08
2022-10-23T09:23:58.166Z,1007.05
2022-10-23T09:24:57.912Z,1007.07
2022-10-23T09:25:58.154Z,1007.01
2022-10-23T09:26:57.978Z,1006.99
2022-10-23T09:28:00.159Z,1006.95
2022-10-23T09:28:58.923Z,1006.94
2022-10-23T09:29:58.187Z,1006.85
2022-10-23T09:31:17.964Z,1006.81
2022-10-23T09:31:58.173Z,1006.84
2022-10-23T09:32:57.908Z,1006.81
2022-10-23T09:33:58.188Z,1006.81
2022-10-23T09:34:57.939Z,1006.76
2022-10-23T09:35:57.706Z,1006.82
2022-10-23T09:36:58.608Z,1006.75
2022-10-23T09:37:58.712Z,1006.75
2022-10-23T09:38:58.025Z,1006.80
2022-10-23T09:39:57.764Z,1006.73
2022-10-23T09:41:18.163Z,1006.79
2022-10-23T09:41:58.883Z,1006.81
2022-10-23T09:42:58.598Z,1006.87
2022-10-23T09:43:59.543Z,1006.83
2022-10-23T09:44:59.332Z,1006.86
2022-10-23T09:45:58.332Z,1006.86
2022-10-23T09:46:58.902Z,1006.83
2022-10-23T09:47:58.621Z,1006.87
2022-10-23T09:49:00.970Z,1006.84
2022-10-23T09:49:58.822Z,1006.80
2022-10-23T09:51:17.640Z,1006.87
2022-10-23T09:51:59.386Z,1006.78
2022-10-23T09:52:57.680Z,1006.78
2022-10-23T09:53:57.937Z,1006.76
2022-10-23T09:54:57.693Z,1006.79
2022-10-23T09:55:57.947Z,1006.80
2022-10-23T09:56:57.690Z,1006.76
2022-10-23T09:57:57.934Z,1006.69
2022-10-23T09:59:07.393Z,1006.64
2022-10-23T09:59:57.692Z,1006.58
2022-10-23T10:01:18.003Z,1006.52
2022-10-23T10:01:57.817Z,1006.49
2022-10-23T10:02:57.414Z,1006.51
2022-10-23T10:03:57.650Z,1006.49
2022-10-23T10:04:57.905Z,1006.45
2022-10-23T10:05:57.645Z,1006.42
2022-10-23T10:06:57.395Z,1006.37
2022-10-23T10:07:57.639Z,1006.36
2022-10-23T10:08:57.381Z,1006.40
2022-10-23T10:09:57.620Z,1006.37
2022-10-23T10:11:19.919Z,1006.37
2022-10-23T10:11:57.602Z,1006.34
2022-10-23T10:12:59.291Z,1006.26
2022-10-23T10:13:57.580Z,1006.16
2022-10-23T10:14:57.326Z,1006.17
2022-10-23T10:15:57.586Z,1006.25
2022-10-23T10:16:57.313Z,1006.32
2022-10-23T10:17:57.573Z,1006.30
2022-10-23T10:18:57.308Z,1006.20
2022-10-23T10:19:57.543Z,1006.21
2022-10-23T10:21:17.303Z,1006.23
2022-10-23T10:21:57.534Z,1006.18
2022-10-23T10:22:57.273Z,1006.23
2022-10-23T10:23:57.511Z,1006.27
2022-10-23T10:24:57.255Z,1006.32
2022-10-23T10:25:57.491Z,1006.34
2022-10-23T10:26:57.252Z,1006.30
2022-10-23T10:27:57.495Z,1006.27
2022-10-23T10:28:57.218Z,1006.28
2022-10-23T10:29:57.465Z,1006.31
2022-10-23T10:31:17.237Z,1006.34
2022-10-23T10:31:57.464Z,1006.36
2022-10-23T10:32:57.206Z,1006.20
2022-10-23T10:33:57.466Z,1006.18
2022-10-23T10:34:57.206Z,1006.10
2022-10-23T10:35:57.457Z,1006.08
2022-10-23T10:36:57.210Z,1006.08
2022-10-23T10:37:57.435Z,1006.03
2022-10-23T10:38:57.187Z,1006.01
2022-10-23T10:39:57.432Z,1006.01
2022-10-23T10:41:17.186Z,1005.89
2022-10-23T10:41:57.417Z,1005.90
2022-10-23T10:42:57.148Z,1005.93
2022-10-23T10:43:57.413Z,1005.99
2022-10-23T10:44:57.131Z,1005.94
2022-10-23T10:45:57.374Z,1005.93
2022-10-23T10:46:57.124Z,1005.91
2022-10-23T10:47:57.368Z,1005.84
2022-10-23T10:48:57.122Z,1005.80
2022-10-23T10:49:57.358Z,1005.73
2022-10-23T10:51:17.141Z,1005.72
2022-10-23T10:51:57.344Z,1005.73
2022-10-23T10:52:57.093Z,1005.78
2022-10-23T10:53:57.329Z,1005.79
2022-10-23T10:54:57.063Z,1005.81
2022-10-23T10:55:57.334Z,1005.80
2022-10-23T10:56:57.042Z,1005.71
2022-10-23T10:57:59.289Z,1005.72
2022-10-23T10:58:57.062Z,1005.77
2022-10-23T10:59:57.313Z,1005.74
2022-10-23T11:01:17.205Z,1005.72
2022-10-23T11:01:57.917Z,1005.65
2022-10-23T11:02:57.042Z,1005.69
2022-10-23T11:03:56.782Z,1005.76
2022-10-23T11:04:57.020Z,1005.76
2022-10-23T11:05:56.830Z,1005.80
2022-10-23T11:06:57.017Z,1005.78
2022-10-23T11:07:56.775Z,1005.76
2022-10-23T11:09:04.025Z,1005.82
2022-10-23T11:09:58.255Z,1005.85
2022-10-23T11:11:17.016Z,1005.89
2022-10-23T11:11:56.734Z,1005.91
2022-10-23T11:12:56.994Z,1005.89
2022-10-23T11:13:56.740Z,1005.82
2022-10-23T11:14:56.969Z,1005.76
2022-10-23T11:15:56.718Z,1005.72
2022-10-23T11:16:56.961Z,1005.68
2022-10-23T11:17:56.709Z,1005.67
2022-10-23T11:18:56.968Z,1005.65
2022-10-23T11:19:56.723Z,1005.64
2022-10-23T11:21:16.986Z,1005.64
2022-10-23T11:21:56.712Z,1005.56
2022-10-23T11:22:56.942Z,1005.49
2022-10-23T11:23:56.756Z,1005.43
2022-10-23T11:24:58.200Z,1005.45
2022-10-23T11:25:56.675Z,1005.43
2022-10-23T11:26:56.922Z,1005.39
2022-10-23T11:28:01.691Z,1005.44
2022-10-23T11:28:57.912Z,1005.37
2022-10-23T11:29:56.661Z,1005.40
2022-10-23T11:31:16.915Z,1005.34
2022-10-23T11:31:56.645Z,1005.35
2022-10-23T11:32:56.896Z,1005.31
2022-10-23T11:33:56.651Z,1005.33
2022-10-23T11:34:56.888Z,1005.23
2022-10-23T11:35:56.629Z,1005.32
2022-10-23T11:36:56.865Z,1005.26
2022-10-23T11:37:56.613Z,1005.26
2022-10-23T11:38:56.848Z,1005.21
2022-10-23T11:39:56.588Z,1005.19
2022-10-23T11:41:18.969Z,1005.19
2022-10-23T11:41:56.577Z,1005.14
2022-10-23T11:42:56.836Z,1005.13
2022-10-23T11:43:56.573Z,1005.14
2022-10-23T11:44:56.825Z,1005.15
2022-10-23T11:45:56.549Z,1005.12
2022-10-23T11:46:56.784Z,1005.15
2022-10-23T11:47:56.538Z,1005.18
2022-10-23T11:48:56.777Z,1005.11
2022-10-23T11:49:56.541Z,1005.05
2022-10-23T11:51:16.794Z,1005.07
2022-10-23T11:51:56.511Z,1005.09
2022-10-23T11:53:13.038Z,1005.10
2022-10-23T11:53:57.504Z,1005.04
2022-10-23T11:54:56.732Z,1005.07
2022-10-23T11:55:56.497Z,1005.06
2022-10-23T11:56:56.730Z,1005.05
2022-10-23T11:57:56.480Z,1005.07
2022-10-23T11:58:57.005Z,1005.09
2022-10-23T11:59:56.527Z,1005.09
2022-10-23T12:01:16.362Z,1005.04
2022-10-23T12:01:56.536Z,1005.05
2022-10-23T12:02:59.202Z,1005.02
2022-10-23T12:03:56.504Z,1004.99
2022-10-23T12:04:56.808Z,1004.98
2022-10-23T12:05:56.579Z,1004.97
2022-10-23T12:06:56.253Z,1004.98
2022-10-23T12:07:57.022Z,1004.87
2022-10-23T12:08:56.267Z,1004.87